Terminal Aerodrome Forecast
Issued by NWS

Home | Current Version | Previous Version | Text Only | Print | Product List | Glossary On
Versions: 1 2 3 4 5 6 7 8 9 10 11 12 13 14 15 16
000
FTUS43 KJKL 201100
TAFSME
TAF
KSME 201139Z 2012/2112 00000KT P6SM BKN050
     FM201500 22007KT P6SM SCT050
     FM202300 VRB03KT P6SM SCT060
     FM211100 VRB03KT P6SM BKN040=

USA.gov is the U.S. government's official web portal to all federal, state and local government web resources and services.